Aeroporto :
LOGIN :

Iscrizione | Disclaimer

   EN    FR    IT 

 










Sommario :    VFR   VFR Marginale   IFR   IFR Intensivo   IFR Molto Intensivo
Visibilità : 
Base nubi : 
>= 8 km
>= 3000ft
5 / 8 km
1000 / 3000 ft
1500m / 5 km
500 / 1000 ft
800 / 1500m
200 / 500 ft
< 800m
< 200 ft
Simboli :   Temporali  Nebbia  Neve Forte  Precipitazioni Forti  Vento > 20 kt
SIGMETs :   Varie  Temporali  Ghiacco  Turbolenza  Onda orograficha  Ceneri Vulcaniche






- Altitudine del aeroporto : 333 ft


LIPL - Ghedi Brescia (Mil)

ULTIMO METAR :
  • 210055Z 02002KT 0700 R31/P2000N BR NSC M03/M04 Q1018 RMK SKC VIS MIN 0700 WIND THR31 36003KT WIND THR13 36004KT

METARs OBSOLETI :
  • 202355Z 01003KT 0400 R31/P2000N FZFG SCT001 M03/M04 Q1018 RMK SCT VIS MIN 0400 WIND THR31 01002KT WIND THR13 01003KT RED
  • 202255Z 13001KT 0400 R31/0600D FZFG SCT001 M02/M03 Q1018 RMK SCT VIS MIN 0400 WIND THR31 13002KT WIND THR13 25001KT RED

TAF TAF LIPL
Valido dal 21 a 00 ore il 21 a 09 ore UTC


202300Z 2100/2109 VRB03KT 1500 BR NSC
TEMPO 2100/2107 0500 FG BKN005



MetMap, La meteo Aeronautica in un colpo d'occhio ! - Copyright ORBIFLY Dicembre 2007 - Disclaimer

ORBIFLY MET'MAP TEAM :

Programmazione e sviluppo : Alexandra Zaïnal
Concezione : Baudouin d'Aumeries
Aiuto per la programmazione : Marc-Olivier Méhu
Supporto tecnico e logistico : Manuel Goepfert
Aiuto per la traduzione : Arnaldo La Scala

Contatto : metmap@orbifly.com




FONTI E CREDITI :

   NOAA